< < Back
Terminal Aerodrome Forecast


Current Version              Previous Versions:   1  2  3  4  5  6  7  8  9  

Terminal Aerodrome Forecast

330
FTUS44 KOHX 170500
TAFBNA
TAF
KBNA 170529Z 1706/1806 29005KT P6SM OVC025
     FM171500 33005KT P6SM SCT030 SCT050=



Latest METAR

271
SAUS70 KWBC 180200 RRA
MTRBNA
METAR KBNA 180153Z 32004KT 10SM SCT250 02/M02 A3028 RMK AO2 SLP257
T00171022


USA.gov is the U.S. government's official web portal to all federal, state and local government web resources and services.